Time;durP1;ratioP1;P1;durP2;ratioP2;P2;SDS_P1;SDS_P2;PMS_P1;PMS_P2;Temp;Humidity;BMP_temperature;BMP_pressure;BME280_temperature;BME280_humidity;BME280_pressure;Samples;Min_cycle;Max_cycle;Signal;HPM_P1;HPM_P2
2024/02/25 00:02:05;;;;;;;0.10;0.10;;;;;;;6.44;67.58;98875.34;7354875;19;20597;-61
2024/02/25 00:04:30;;;;;;;0.10;0.10;;;;;;;6.50;67.71;98890.69;7355777;19;20018;-61
2024/02/25 00:06:56;;;;;;;0.10;0.10;;;;;;;6.38;67.85;98878.13;7359674;19;20010;-62
2024/02/25 00:09:21;;;;;;;0.10;0.10;;;;;;;6.46;68.20;98889.09;7353633;19;20547;-62
2024/02/25 00:11:47;;;;;;;0.10;0.10;;;;;;;6.43;67.90;98884.84;7358591;19;20037;-61
2024/02/25 00:14:12;;;;;;;0.08;0.08;;;;;;;6.34;67.86;98867.03;7355172;19;20006;-62
2024/02/25 00:16:38;;;;;;;0.10;0.10;;;;;;;6.43;68.50;98876.22;7358901;19;20014;-61
2024/02/25 00:19:03;;;;;;;0.00;0.00;;;;;;;6.42;68.14;98885.75;7359323;19;20081;-62
2024/02/25 00:21:29;;;;;;;0.10;0.10;;;;;;;6.41;68.33;98883.22;7351851;19;20034;-62
2024/02/25 00:23:55;;;;;;;0.10;0.10;;;;;;;6.40;68.49;98879.78;7355654;19;20014;-61
2024/02/25 00:26:20;;;;;;;0.05;0.05;;;;;;;6.40;68.47;98882.38;7356879;19;20019;-62
2024/02/25 00:28:45;;;;;;;0.00;0.00;;;;;;;6.40;68.34;98882.38;7350598;19;20010;-62
2024/02/25 00:31:11;;;;;;;0.00;0.00;;;;;;;6.39;68.31;98878.09;7357026;19;20418;-61
2024/02/25 00:33:36;;;;;;;0.10;0.10;;;;;;;6.38;68.30;98876.38;7359236;19;20023;-62
2024/02/25 00:36:02;;;;;;;0.10;0.10;;;;;;;6.38;68.26;98872.94;7358520;19;20011;-61
2024/02/25 00:38:27;;;;;;;0.10;0.10;;;;;;;6.37;68.18;98869.50;7358217;19;20021;-61
2024/02/25 00:40:53;;;;;;;0.10;0.10;;;;;;;6.36;68.30;98875.59;7357771;19;20014;-62
2024/02/25 00:43:18;;;;;;;0.03;0.03;;;;;;;6.32;68.35;98862.78;7361234;19;20010;-61
2024/02/25 00:45:44;;;;;;;0.10;0.10;;;;;;;6.35;68.27;98873.06;7356682;19;20007;-61
2024/02/25 00:48:09;;;;;;;0.10;0.10;;;;;;;6.32;68.77;98874.00;7356692;19;20011;-61
2024/02/25 00:50:34;;;;;;;0.10;0.10;;;;;;;6.30;68.48;98869.78;7360030;19;20493;-61
2024/02/25 00:53:00;;;;;;;0.10;0.10;;;;;;;6.31;68.47;98872.31;7355682;19;20028;-61
2024/02/25 00:55:25;;;;;;;0.10;0.10;;;;;;;6.31;68.43;98871.47;7355032;19;20027;-61
2024/02/25 00:57:51;;;;;;;0.10;0.10;;;;;;;6.30;68.36;98872.38;7358101;19;20037;-61
2024/02/25 01:00:19;;;;;;;0.00;0.00;;;;;;;6.28;68.30;98862.03;7357810;19;20386;-62
2024/02/25 01:02:45;;;;;;;0.10;0.10;;;;;;;6.27;68.16;98855.19;7355828;19;20363;-62
2024/02/25 01:05:11;;;;;;;0.10;0.10;;;;;;;6.25;68.62;98851.81;7353965;19;20835;-62
2024/02/25 01:07:38;;;;;;;0.10;0.10;;;;;;;6.25;68.31;98851.81;7356669;19;20017;-61
2024/02/25 01:10:05;;;;;;;0.00;0.00;;;;;;;6.22;68.48;98857.91;7357030;19;20077;-62
2024/02/25 01:12:30;;;;;;;0.10;0.10;;;;;;;6.22;68.38;98846.72;7358269;19;20632;-62
2024/02/25 01:14:56;;;;;;;0.10;0.10;;;;;;;6.19;68.25;98836.47;7353210;19;20101;-61
2024/02/25 01:17:21;;;;;;;0.05;0.05;;;;;;;6.20;68.37;98845.94;7354294;19;20007;-61
2024/02/25 01:19:46;;;;;;;0.10;0.10;;;;;;;6.18;68.75;98846.00;7355451;19;20026;-61
2024/02/25 01:22:12;;;;;;;0.10;0.10;;;;;;;6.17;68.50;98833.91;7355073;19;20366;-61
2024/02/25 01:24:37;;;;;;;0.10;0.10;;;;;;;6.16;68.44;98837.41;7355226;19;20018;-62
2024/02/25 01:27:03;;;;;;;0.10;0.10;;;;;;;6.17;68.62;98843.44;7358636;19;20019;-62
2024/02/25 01:29:28;;;;;;;0.10;0.10;;;;;;;6.16;69.02;98841.75;7353401;19;20053;-63
2024/02/25 01:31:56;;;;;;;0.00;0.00;;;;;;;6.15;69.11;98840.06;7354053;19;20019;-62
2024/02/25 01:34:25;;;;;;;0.00;0.00;;;;;;;6.15;68.95;98829.69;7358420;19;20082;-61
2024/02/25 01:36:51;;;;;;;0.00;0.00;;;;;;;6.14;69.21;98833.19;7365883;19;20039;-61
2024/02/25 01:39:16;;;;;;;0.10;0.10;;;;;;;6.13;68.86;98834.06;7363157;19;19998;-62
2024/02/25 01:41:42;;;;;;;0.10;0.10;;;;;;;6.13;68.88;98827.16;7363661;19;20014;-60
2024/02/25 01:44:07;;;;;;;0.10;0.10;;;;;;;6.13;68.85;98818.50;7366933;19;20785;-62
2024/02/25 01:46:33;;;;;;;0.00;0.00;;;;;;;6.13;69.23;98821.09;7356483;19;20078;-61
2024/02/25 01:48:59;;;;;;;0.00;0.00;;;;;;;6.12;68.96;98824.59;7365076;19;20031;-61
2024/02/25 01:51:24;;;;;;;0.00;0.00;;;;;;;6.11;69.33;98822.91;7363584;19;20014;-61
2024/02/25 01:53:50;;;;;;;0.10;0.10;;;;;;;6.08;69.40;98817.81;7366451;19;20002;-61
2024/02/25 01:56:19;;;;;;;0.08;0.08;;;;;;;6.15;69.37;98827.09;7359308;19;20094;-61
2024/02/25 01:58:46;;;;;;;0.08;0.08;;;;;;;6.15;69.47;98821.91;7364211;19;20003;-61
2024/02/25 02:01:15;;;;;;;0.10;0.10;;;;;;;6.18;69.33;98814.03;7359058;19;20018;-62
2024/02/25 02:03:41;;;;;;;0.10;0.10;;;;;;;6.16;69.59;98815.84;7362255;19;20005;-62
2024/02/25 02:06:12;;;;;;;0.00;0.00;;;;;;;6.18;69.33;98814.03;7363909;19;20021;-61
2024/02/25 02:08:37;;;;;;;0.00;0.00;;;;;;;6.19;69.76;98810.56;7361590;19;20015;-61
2024/02/25 02:11:19;;;;;;;0.00;0.00;;;;;;;6.25;69.25;98812.91;7364417;19;20010;-62
2024/02/25 02:13:45;;;;;;;0.10;0.10;;;;;;;6.24;69.58;98808.66;7363590;19;20025;-62
2024/02/25 02:16:15;;;;;;;0.03;0.03;;;;;;;6.26;69.56;98806.00;7360743;19;20909;-61
2024/02/25 02:18:44;;;;;;;0.10;0.10;;;;;;;6.27;69.47;98803.34;7358663;19;20006;-61
2024/02/25 02:21:10;;;;;;;0.10;0.10;;;;;;;6.29;69.94;98801.56;7362662;19;20010;-61
2024/02/25 02:23:36;;;;;;;0.10;0.10;;;;;;;6.31;69.72;98794.56;7362732;19;20003;-62
2024/02/25 02:26:01;;;;;;;0.10;0.10;;;;;;;6.34;69.60;98791.88;7365139;19;20045;-62
2024/02/25 02:28:27;;;;;;;0.05;0.05;;;;;;;6.36;69.86;98784.88;7356486;19;20028;-62
2024/02/25 02:30:52;;;;;;;0.10;0.10;;;;;;;6.38;70.05;98779.63;7362979;19;20088;-61
2024/02/25 02:33:18;;;;;;;0.00;0.00;;;;;;;6.40;69.60;98781.25;7361306;19;20015;-63
2024/02/25 02:35:43;;;;;;;0.00;0.00;;;;;;;6.31;69.71;98752.22;7361128;19;20007;-61
2024/02/25 02:38:12;;;;;;;0.08;0.08;;;;;;;6.45;69.63;98771.56;7361913;19;20026;-61
2024/02/25 02:40:38;;;;;;;0.10;0.10;;;;;;;6.45;70.08;98766.38;7357452;19;20017;-61
2024/02/25 02:43:04;;;;;;;0.00;0.00;;;;;;;6.47;69.75;98756.78;7363256;19;20608;-62
2024/02/25 02:45:30;;;;;;;0.10;0.10;;;;;;;6.46;70.22;98751.66;7360676;19;20011;-61
2024/02/25 02:47:55;;;;;;;0.10;0.10;;;;;;;6.49;70.10;98746.38;7352417;19;20802;-61
2024/02/25 02:50:21;;;;;;;0.00;0.00;;;;;;;6.49;69.74;98752.41;7363661;19;20007;-62
2024/02/25 02:52:46;;;;;;;0.10;0.10;;;;;;;6.50;69.74;98742.88;7357140;19;20027;-61
2024/02/25 02:55:12;;;;;;;0.10;0.10;;;;;;;6.52;70.04;98741.06;7359274;19;20135;-61
2024/02/25 02:57:37;;;;;;;0.10;0.10;;;;;;;6.50;70.13;98728.16;7360968;19;20041;-61
2024/02/25 03:00:03;;;;;;;0.00;0.00;;;;;;;6.54;69.81;98723.72;7365324;19;20024;-61
2024/02/25 03:02:28;;;;;;;0.00;0.00;;;;;;;6.55;70.02;98721.97;7364456;19;20026;-62
2024/02/25 03:04:54;;;;;;;0.10;0.10;;;;;;;6.56;70.04;98728.84;7362678;19;20558;-61
2024/02/25 03:07:19;;;;;;;0.03;0.03;;;;;;;6.56;69.77;98728.84;7360376;19;20365;-62
2024/02/25 03:09:45;;;;;;;0.00;0.00;;;;;;;6.57;69.90;98730.53;7358806;19;20026;-62
2024/02/25 03:12:10;;;;;;;0.10;0.10;;;;;;;6.57;69.84;98733.13;7364815;19;20082;-61
2024/02/25 03:14:37;;;;;;;0.10;0.10;;;;;;;6.57;69.73;98723.59;7356730;19;20025;-61
2024/02/25 03:17:03;;;;;;;0.10;0.10;;;;;;;6.57;70.26;98722.75;7367908;19;20038;-62
2024/02/25 03:19:28;;;;;;;0.10;0.10;;;;;;;6.58;69.92;98714.91;7361870;19;20006;-62
2024/02/25 03:21:54;;;;;;;0.10;0.10;;;;;;;6.59;69.86;98724.38;7362769;19;20022;-62
2024/02/25 03:24:20;;;;;;;0.00;0.00;;;;;;;6.60;70.00;98712.25;7363953;19;20025;-61
2024/02/25 03:26:49;;;;;;;0.10;0.10;;;;;;;6.62;70.24;98707.84;7360874;19;20070;-61
2024/02/25 03:29:14;;;;;;;0.10;0.10;;;;;;;6.62;70.12;98718.22;7360057;19;20466;-61
2024/02/25 03:31:39;;;;;;;0.10;0.10;;;;;;;6.60;70.18;98714.84;7362215;19;20144;-62
2024/02/25 03:34:05;;;;;;;0.10;0.10;;;;;;;6.64;70.41;98737.16;7365079;19;20014;-62
2024/02/25 03:36:30;;;;;;;0.00;0.00;;;;;;;6.61;70.66;98729.50;7362305;19;20804;-61
2024/02/25 03:38:56;;;;;;;0.10;0.10;;;;;;;6.66;70.69;98740.56;7361754;19;20006;-61
2024/02/25 03:41:22;;;;;;;0.00;0.00;;;;;;;6.65;70.72;98741.47;7363429;19;21075;-61
2024/02/25 03:43:47;;;;;;;0.10;0.10;;;;;;;6.68;70.69;98741.31;7359600;19;20021;-61
2024/02/25 03:46:13;;;;;;;0.05;0.05;;;;;;;6.68;70.39;98728.34;7363045;19;20010;-62
2024/02/25 03:48:38;;;;;;;0.10;0.10;;;;;;;6.69;70.61;98737.81;7357097;19;20792;-61
2024/02/25 03:51:04;;;;;;;0.10;0.10;;;;;;;6.69;70.64;98740.41;7358544;19;20450;-62
2024/02/25 03:53:29;;;;;;;0.05;0.05;;;;;;;6.69;70.60;98737.81;7364705;19;20021;-61
2024/02/25 03:55:54;;;;;;;0.10;0.10;;;;;;;6.64;70.55;98724.19;7340852;19;20003;-62
2024/02/25 03:58:20;;;;;;;0.10;0.10;;;;;;;6.65;70.55;98733.69;7363250;19;20021;-65
2024/02/25 04:00:45;;;;;;;0.10;0.10;;;;;;;6.67;70.41;98739.63;7353916;19;20078;-62
2024/02/25 04:03:11;;;;;;;0.00;0.00;;;;;;;6.66;70.39;98740.56;7365799;19;20906;-62
2024/02/25 04:05:36;;;;;;;0.10;0.10;;;;;;;6.65;70.22;98736.28;7364638;19;20637;-62
2024/02/25 04:08:02;;;;;;;0.00;0.00;;;;;;;6.63;70.58;98722.50;7364594;19;20636;-62
2024/02/25 04:10:28;;;;;;;0.00;0.00;;;;;;;6.61;70.34;98719.13;7366126;19;20002;-62
2024/02/25 04:12:53;;;;;;;0.10;0.10;;;;;;;6.61;70.43;98726.91;7366178;19;20022;-62
2024/02/25 04:15:19;;;;;;;0.10;0.10;;;;;;;6.58;70.37;98719.25;7359071;19;20542;-61
2024/02/25 04:17:44;;;;;;;0.08;0.08;;;;;;;6.56;70.72;98726.25;7336309;19;20025;-61
2024/02/25 04:20:10;;;;;;;0.10;0.10;;;;;;;6.54;70.34;98725.44;7359891;19;20074;-61
2024/02/25 04:22:35;;;;;;;0.10;0.10;;;;;;;6.52;70.41;98730.69;7366929;19;20019;-61
2024/02/25 04:25:00;;;;;;;0.10;0.10;;;;;;;6.50;70.79;98728.16;7364478;19;20074;-61
2024/02/25 04:27:26;;;;;;;0.00;0.00;;;;;;;6.48;70.55;98729.94;7362854;19;20014;-61
2024/02/25 04:29:52;;;;;;;0.10;0.10;;;;;;;6.42;70.39;98712.03;7357521;19;20010;-61
2024/02/25 04:32:17;;;;;;;0.10;0.10;;;;;;;6.46;70.62;98724.00;7361189;19;20613;-61
2024/02/25 04:34:43;;;;;;;0.10;0.10;;;;;;;6.45;70.69;98714.53;7361688;19;20702;-61
2024/02/25 04:37:08;;;;;;;0.03;0.03;;;;;;;6.44;70.88;98707.66;7365465;19;20725;-61
2024/02/25 04:39:38;;;;;;;0.00;0.00;;;;;;;6.43;70.97;98708.53;7365472;19;20038;-61
2024/02/25 04:42:07;;;;;;;0.10;0.10;;;;;;;6.43;71.12;98712.88;7365231;19;20011;-61
2024/02/25 04:44:33;;;;;;;0.10;0.10;;;;;;;6.42;70.94;98704.25;7349332;19;20025;-62
2024/02/25 04:46:58;;;;;;;0.10;0.10;;;;;;;6.32;70.79;98687.38;7364309;19;20014;-61
2024/02/25 04:49:24;;;;;;;0.00;0.00;;;;;;;6.41;71.04;98697.41;7365700;19;20448;-62
2024/02/25 04:51:49;;;;;;;0.08;0.08;;;;;;;6.41;70.95;98697.41;7365609;19;20015;-61
2024/02/25 04:54:15;;;;;;;0.10;0.10;;;;;;;6.42;70.85;98695.66;7362658;19;20015;-61
2024/02/25 04:56:45;;;;;;;0.05;0.05;;;;;;;6.43;70.92;98690.38;7358683;19;20761;-62
2024/02/25 04:59:11;;;;;;;0.10;0.10;;;;;;;6.37;70.85;98675.06;7365474;19;20014;-61
2024/02/25 05:01:46;;;;;;;0.08;0.08;;;;;;;6.43;70.94;98679.19;7364823;19;20016;-62
2024/02/25 05:04:11;;;;;;;0.10;0.10;;;;;;;6.41;71.33;98671.47;7362536;19;20275;-62
2024/02/25 05:06:36;;;;;;;0.10;0.10;;;;;;;6.41;70.75;98681.84;7361614;19;20021;-62
2024/02/25 05:09:03;;;;;;;0.05;0.05;;;;;;;6.41;71.04;98675.81;7365787;19;20604;-61
2024/02/25 05:11:28;;;;;;;0.10;0.10;;;;;;;6.39;70.91;98668.09;7368451;19;20033;-61
2024/02/25 05:13:54;;;;;;;0.00;0.00;;;;;;;6.40;71.16;98668.94;7373684;19;20581;-62
2024/02/25 05:16:20;;;;;;;0.10;0.10;;;;;;;6.39;71.17;98668.09;7367527;19;20006;-61
2024/02/25 05:18:46;;;;;;;0.05;0.05;;;;;;;6.41;71.09;98662.84;7370436;19;20046;-62
2024/02/25 05:21:11;;;;;;;0.00;0.00;;;;;;;6.43;71.36;98676.59;7368066;19;20003;-62
2024/02/25 05:23:37;;;;;;;0.10;0.10;;;;;;;6.45;71.59;98674.81;7372697;19;20010;-61
2024/02/25 05:26:02;;;;;;;0.10;0.10;;;;;;;6.46;71.48;98669.53;7371489;19;20014;-61
2024/02/25 05:28:30;;;;;;;0.00;0.00;;;;;;;6.48;71.33;98665.13;7367185;19;20010;-61
2024/02/25 05:30:56;;;;;;;0.00;0.00;;;;;;;6.52;71.05;98667.63;7369683;19;20025;-61
2024/02/25 05:33:21;;;;;;;0.10;0.10;;;;;;;6.55;71.10;98668.34;7360200;19;20003;-62
2024/02/25 05:35:47;;;;;;;0.10;0.10;;;;;;;6.42;71.30;98642.03;7366347;19;20033;-61
2024/02/25 05:38:12;;;;;;;0.10;0.10;;;;;;;6.59;71.42;98664.75;7369016;19;20018;-61
2024/02/25 05:40:40;;;;;;;0.10;0.10;;;;;;;6.62;70.93;98666.34;7372031;19;20010;-62
2024/02/25 05:43:07;;;;;;;0.10;0.10;;;;;;;6.63;71.28;98671.47;7368152;19;20014;-61
2024/02/25 05:45:32;;;;;;;0.03;0.03;;;;;;;6.66;71.23;98678.31;7371040;19;20033;-61
2024/02/25 05:47:58;;;;;;;0.10;0.10;;;;;;;6.67;71.42;98673.06;7366982;19;20557;-61
2024/02/25 05:50:23;;;;;;;0.10;0.10;;;;;;;6.69;71.67;98675.56;7366214;19;20478;-62
2024/02/25 05:52:48;;;;;;;0.10;0.10;;;;;;;6.72;71.24;98670.28;7365301;19;20448;-61
2024/02/25 05:55:14;;;;;;;0.10;0.10;;;;;;;6.74;71.31;98669.31;7367587;19;20022;-61
2024/02/25 05:57:40;;;;;;;0.10;0.10;;;;;;;6.79;71.47;98668.28;7370027;19;20010;-62
2024/02/25 06:00:10;;;;;;;0.10;0.10;;;;;;;6.83;71.33;98668.09;7369728;19;20042;-61
2024/02/25 06:02:36;;;;;;;0.08;0.08;;;;;;;6.85;71.44;98660.28;7366032;19;20754;-61
2024/02/25 06:05:01;;;;;;;0.00;0.00;;;;;;;6.91;71.33;98662.63;7368457;19;20022;-61
2024/02/25 06:07:28;;;;;;;0.10;0.10;;;;;;;6.94;71.78;98663.31;7367970;19;20013;-62
2024/02/25 06:09:55;;;;;;;0.10;0.10;;;;;;;6.98;71.46;98662.28;7367347;19;20090;-61
2024/02/25 06:12:20;;;;;;;0.00;0.00;;;;;;;7.01;71.28;98662.19;7369930;19;20015;-61
2024/02/25 06:14:46;;;;;;;0.10;0.10;;;;;;;7.02;71.58;98658.66;7362242;19;20021;-61
2024/02/25 06:17:11;;;;;;;0.10;0.10;;;;;;;7.06;71.24;98658.56;7368580;19;20336;-61
2024/02/25 06:19:37;;;;;;;0.10;0.10;;;;;;;7.05;71.46;98652.53;7360177;19;20011;-62
2024/02/25 06:22:03;;;;;;;0.10;0.10;;;;;;;7.05;71.63;98652.53;7361920;19;20099;-61
2024/02/25 06:24:29;;;;;;;0.10;0.10;;;;;;;7.12;71.32;98658.28;7365445;19;20114;-63
2024/02/25 06:26:54;;;;;;;0.10;0.10;;;;;;;7.14;71.59;98656.47;7368991;19;20485;-62
2024/02/25 06:29:20;;;;;;;0.00;0.00;;;;;;;7.05;71.28;98642.13;7369051;19;20026;-62
2024/02/25 06:31:46;;;;;;;0.10;0.10;;;;;;;7.17;71.38;98656.34;7366563;19;20029;-62
2024/02/25 06:34:11;;;;;;;0.05;0.05;;;;;;;7.20;71.25;98661.44;7367483;19;20025;-61
2024/02/25 06:36:37;;;;;;;0.05;0.05;;;;;;;7.23;71.63;98653.50;7360118;19;20025;-62
2024/02/25 06:39:03;;;;;;;0.10;0.10;;;;;;;7.25;71.56;98664.69;7368054;19;20021;-62
2024/02/25 06:41:28;;;;;;;0.10;0.10;;;;;;;7.27;71.53;98668.88;7366874;19;20014;-62
2024/02/25 06:43:54;;;;;;;0.10;0.10;;;;;;;7.28;71.30;98669.72;7367234;19;20046;-63
2024/02/25 06:46:20;;;;;;;0.10;0.10;;;;;;;7.31;71.39;98680.00;7364773;19;20102;-61
2024/02/25 06:48:46;;;;;;;0.10;0.10;;;;;;;7.13;71.61;98647.00;7362001;19;20026;-62
2024/02/25 06:51:22;;;;;;;0.10;0.10;;;;;;;7.39;71.28;98688.28;7367669;19;20037;-62
2024/02/25 06:53:47;;;;;;;0.00;0.00;;;;;;;7.39;71.38;98692.63;7366663;19;20035;-61
2024/02/25 06:56:15;;;;;;;0.10;0.10;;;;;;;7.42;71.26;98682.13;7364384;19;20474;-62
2024/02/25 06:58:40;;;;;;;0.10;0.10;;;;;;;7.42;71.57;98688.16;7359984;19;20601;-62
2024/02/25 07:01:06;;;;;;;0.08;0.08;;;;;;;7.46;71.26;98689.72;7366821;19;20010;-62
2024/02/25 07:03:31;;;;;;;0.10;0.10;;;;;;;7.49;71.38;98699.13;7365644;19;20021;-61
2024/02/25 07:05:56;;;;;;;0.10;0.10;;;;;;;7.52;71.62;98699.84;7366001;19;20010;-61
2024/02/25 07:08:22;;;;;;;0.00;0.00;;;;;;;7.56;71.69;98695.38;7364486;19;20753;-61
2024/02/25 07:10:50;;;;;;;0.10;0.10;;;;;;;7.60;71.52;98706.47;7366461;19;20010;-62
2024/02/25 07:13:15;;;;;;;0.00;0.00;;;;;;;7.64;71.24;98708.03;7366106;19;20769;-62
2024/02/25 07:15:41;;;;;;;0.05;0.05;;;;;;;7.67;71.83;98703.56;7365056;19;20102;-62
2024/02/25 07:18:06;;;;;;;0.10;0.10;;;;;;;7.73;71.84;98718.03;7366517;19;20015;-62
2024/02/25 07:20:31;;;;;;;0.10;0.10;;;;;;;7.75;71.21;98711.00;7363849;19;20006;-62
2024/02/25 07:22:57;;;;;;;0.00;0.00;;;;;;;7.78;71.48;98713.47;7366042;19;20021;-62
2024/02/25 07:25:22;;;;;;;0.00;0.00;;;;;;;7.82;71.58;98722.00;7364252;19;20022;-61
2024/02/25 07:27:48;;;;;;;0.00;0.00;;;;;;;7.85;71.40;98727.88;7366202;19;20019;-62
2024/02/25 07:30:13;;;;;;;0.10;0.10;;;;;;;7.85;71.41;98717.50;7366036;19;20002;-61
2024/02/25 07:32:38;;;;;;;0.10;0.10;;;;;;;7.88;71.47;98717.38;7364481;19;20019;-62
2024/02/25 07:35:04;;;;;;;0.10;0.10;;;;;;;7.94;71.87;98734.44;7367575;19;20727;-62
2024/02/25 07:37:30;;;;;;;0.10;0.10;;;;;;;7.95;71.77;98734.38;7366586;19;20011;-62
2024/02/25 07:39:55;;;;;;;0.10;0.10;;;;;;;7.98;71.68;98739.44;7363294;19;20010;-61
2024/02/25 07:42:21;;;;;;;0.10;0.10;;;;;;;8.00;71.30;98745.41;7364728;19;20025;-62
2024/02/25 07:44:46;;;;;;;0.10;0.10;;;;;;;8.02;71.54;98746.22;7363974;19;20007;-63
2024/02/25 07:47:11;;;;;;;0.10;0.10;;;;;;;8.02;71.62;98738.41;7364824;19;20010;-61
2024/02/25 07:49:37;;;;;;;0.10;0.10;;;;;;;8.05;71.62;98748.66;7366283;19;20589;-62
2024/02/25 07:52:03;;;;;;;0.10;0.10;;;;;;;8.05;71.44;98746.06;7362539;19;20031;-61
2024/02/25 07:54:28;;;;;;;0.10;0.10;;;;;;;8.09;71.18;98751.13;7366402;19;20034;-61
2024/02/25 07:56:54;;;;;;;0.10;0.10;;;;;;;8.04;71.63;98739.19;7354802;19;20038;-61
2024/02/25 07:59:19;;;;;;;0.10;0.10;;;;;;;8.11;71.64;98760.56;7365305;19;20029;-62
2024/02/25 08:01:45;;;;;;;0.10;0.10;;;;;;;8.12;71.41;98761.41;7364696;19;20013;-62
2024/02/25 08:04:10;;;;;;;0.00;0.00;;;;;;;8.10;71.38;98764.06;7363810;19;20029;-62
2024/02/25 08:06:35;;;;;;;0.00;0.00;;;;;;;8.07;71.34;98765.06;7363208;19;20454;-62
2024/02/25 08:09:02;;;;;;;0.10;0.10;;;;;;;8.06;71.36;98767.72;7354693;19;20040;-62
2024/02/25 08:11:27;;;;;;;0.05;0.05;;;;;;;8.03;71.60;98768.69;7362593;19;20010;-62
2024/02/25 08:13:53;;;;;;;0.10;0.10;;;;;;;8.00;71.92;98763.59;7358341;19;20473;-61
2024/02/25 08:16:19;;;;;;;0.10;0.10;;;;;;;7.99;72.16;98768.88;7364453;19;20045;-62
2024/02/25 08:18:46;;;;;;;0.10;0.10;;;;;;;7.96;71.89;98762.06;7357397;19;20019;-62
2024/02/25 08:21:12;;;;;;;0.10;0.10;;;;;;;7.95;72.32;98760.38;7362327;19;20015;-62
2024/02/25 08:23:39;;;;;;;0.00;0.00;;;;;;;7.93;72.29;98759.59;7364734;19;20803;-63
2024/02/25 08:26:07;;;;;;;0.10;0.10;;;;;;;7.80;72.39;98741.06;7364568;19;20018;-62
2024/02/25 08:28:32;;;;;;;0.10;0.10;;;;;;;7.91;72.28;98764.03;7361861;19;20014;-62
2024/02/25 08:30:57;;;;;;;0.10;0.10;;;;;;;7.92;72.70;98763.13;7360914;19;20449;-62
2024/02/25 08:33:23;;;;;;;0.10;0.10;;;;;;;7.93;72.55;98767.41;7362147;19;20022;-62
2024/02/25 08:35:48;;;;;;;0.10;0.10;;;;;;;7.95;72.51;98770.75;7362691;19;20002;-62
2024/02/25 08:38:13;;;;;;;0.10;0.10;;;;;;;7.96;72.85;98777.66;7363751;19;20015;-63
2024/02/25 08:40:39;;;;;;;0.10;0.10;;;;;;;7.98;72.79;98775.84;7364011;19;20208;-64
2024/02/25 08:43:04;;;;;;;0.10;0.10;;;;;;;7.96;72.94;98774.22;7365658;19;20029;-62
2024/02/25 08:45:30;;;;;;;0.10;0.10;;;;;;;8.01;72.90;98780.91;7369250;19;20386;-63
2024/02/25 08:47:55;;;;;;;0.00;0.00;;;;;;;8.05;72.51;98786.81;7369614;19;20635;-62
2024/02/25 08:50:21;;;;;;;0.10;0.10;;;;;;;8.07;72.83;98783.25;7368069;19;19994;-62
2024/02/25 08:52:46;;;;;;;0.00;0.00;;;;;;;8.12;72.64;98787.41;7370601;19;20021;-62
2024/02/25 08:55:11;;;;;;;0.00;0.00;;;;;;;8.13;72.67;98794.28;7372937;19;20002;-62
2024/02/25 08:57:37;;;;;;;0.00;0.00;;;;;;;7.97;72.88;98758.56;7368276;19;20673;-62
2024/02/25 09:00:07;;;;;;;0.00;0.00;;;;;;;8.19;72.59;98788.81;7367550;19;20003;-62
2024/02/25 09:02:33;;;;;;;0.10;0.10;;;;;;;8.21;72.74;98786.97;7360731;19;20010;-62
2024/02/25 09:04:58;;;;;;;0.10;0.10;;;;;;;8.23;72.47;98793.81;7367603;19;20042;-62
2024/02/25 09:07:24;;;;;;;0.10;0.10;;;;;;;8.27;72.83;98791.94;7367595;19;19990;-63
2024/02/25 09:09:50;;;;;;;0.10;0.10;;;;;;;8.29;72.98;98797.91;7366737;19;20033;-63
2024/02/25 09:12:16;;;;;;;0.10;0.10;;;;;;;8.32;72.97;98795.19;7361006;19;20110;-63
2024/02/25 09:14:41;;;;;;;0.10;0.10;;;;;;;8.34;72.86;98801.16;7365626;19;20052;-62
2024/02/25 09:17:07;;;;;;;0.00;0.00;;;;;;;8.36;72.76;98799.34;7368420;19;20014;-63
2024/02/25 09:19:32;;;;;;;0.00;0.00;;;;;;;8.39;72.65;98800.97;7367985;19;20037;-62
2024/02/25 09:21:58;;;;;;;0.10;0.10;;;;;;;8.42;72.77;98808.66;7363975;19;20066;-63
2024/02/25 09:24:25;;;;;;;0.10;0.10;;;;;;;8.45;72.96;98806.75;7366919;19;20057;-62
2024/02/25 09:26:50;;;;;;;0.08;0.08;;;;;;;8.45;72.87;98806.75;7366230;19;20058;-62
2024/02/25 09:29:18;;;;;;;0.10;0.10;;;;;;;8.49;72.89;98817.88;7367885;19;20098;-62
2024/02/25 09:31:43;;;;;;;0.00;0.00;;;;;;;8.51;72.90;98816.88;7361049;19;20018;-65
2024/02/25 09:34:11;;;;;;;0.10;0.10;;;;;;;8.55;72.66;98828.00;7367398;19;20509;-63
2024/02/25 09:36:36;;;;;;;;;;;;;;;8.62;71.70;98823.34;7368139;19;20027;-63
2024/02/25 09:39:03;;;;;;;0.10;0.10;;;;;;;8.61;72.54;98826.88;7368890;19;19934;-64
2024/02/25 09:41:39;;;;;;;0.10;0.10;;;;;;;8.61;72.72;98829.47;7368910;19;20038;-62
2024/02/25 09:44:12;;;;;;;0.10;0.10;;;;;;;8.48;72.56;98809.22;7361972;19;20462;-62
2024/02/25 09:46:38;;;;;;;0.10;0.10;;;;;;;8.63;72.85;98831.13;7352767;19;20798;-63
2024/02/25 09:49:07;;;;;;;0.10;0.10;;;;;;;8.67;72.49;98837.00;7364432;19;20006;-62
2024/02/25 09:51:35;;;;;;;0.08;0.08;;;;;;;8.68;72.83;98833.50;7369551;19;20941;-61
2024/02/25 09:54:01;;;;;;;0.03;0.03;;;;;;;8.70;72.59;98834.28;7366800;19;20014;-63
2024/02/25 09:56:26;;;;;;;0.10;0.10;;;;;;;8.71;72.92;98838.56;7367135;19;20025;-61
2024/02/25 09:58:51;;;;;;;0.10;0.10;;;;;;;8.74;72.60;98838.44;7369148;19;20006;-62
2024/02/25 10:01:17;;;;;;;0.10;0.10;;;;;;;8.77;72.95;98836.53;7368839;19;20014;-62
2024/02/25 10:03:43;;;;;;;0.05;0.05;;;;;;;8.75;72.77;98835.75;7364238;19;19998;-62
2024/02/25 10:06:10;;;;;;;0.10;0.10;;;;;;;8.84;72.82;98844.91;7368676;19;20122;-62
2024/02/25 10:08:51;;;;;;;0.10;0.10;;;;;;;8.94;72.58;98847.94;7365776;19;20023;-62
2024/02/25 10:11:20;;;;;;;0.10;0.10;;;;;;;8.78;72.56;98829.59;7366374;19;20018;-61
2024/02/25 10:13:47;;;;;;;0.10;0.10;;;;;;;9.00;72.90;98850.25;7365819;19;20403;-61
2024/02/25 10:16:19;;;;;;;0.10;0.10;;;;;;;9.07;72.89;98847.31;7369111;19;20035;-62
2024/02/25 10:18:49;;;;;;;0.00;0.00;;;;;;;9.12;72.63;98849.69;7365310;19;20524;-63
2024/02/25 10:21:14;;;;;;;0.10;0.10;;;;;;;9.15;72.76;98848.72;7368640;19;20790;-62
2024/02/25 10:23:40;;;;;;;0.10;0.10;;;;;;;9.21;72.41;98848.41;7365739;19;20073;-62
2024/02/25 10:26:15;;;;;;;0.08;0.08;;;;;;;9.30;72.35;98848.00;7367938;19;20034;-61
2024/02/25 10:28:41;;;;;;;0.10;0.10;;;;;;;9.33;72.34;98853.06;7366417;19;20423;-61
2024/02/25 10:31:09;;;;;;;0.10;0.10;;;;;;;9.28;72.69;98831.59;7366124;19;20017;-63
2024/02/25 10:33:35;;;;;;;0.10;0.10;;;;;;;9.45;72.16;98847.28;7370396;19;20015;-64
2024/02/25 10:36:19;;;;;;;0.10;0.10;;;;;;;9.52;72.23;98843.44;7368572;19;20006;-62
2024/02/25 10:38:46;;;;;;;0.10;0.10;;;;;;;9.54;72.16;98840.78;7367768;19;20720;-61
2024/02/25 10:41:13;;;;;;;0.10;0.10;;;;;;;9.61;72.30;98837.78;7369437;19;20806;-62
2024/02/25 10:43:39;;;;;;;0.10;0.10;;;;;;;9.68;72.25;98842.69;7368495;19;20033;-62
2024/02/25 10:46:18;;;;;;;0.10;0.10;;;;;;;9.73;71.65;98852.00;7366230;19;20018;-61
2024/02/25 10:48:44;;;;;;;0.10;0.10;;;;;;;9.74;72.02;98855.47;7366877;19;20371;-62
2024/02/25 10:51:10;;;;;;;0.10;0.10;;;;;;;9.78;71.67;98862.19;7364165;19;20002;-61
2024/02/25 10:53:41;;;;;;;0.10;0.10;;;;;;;9.78;71.75;98859.56;7368461;19;20376;-62
2024/02/25 10:56:13;;;;;;;0.10;0.10;;;;;;;9.87;71.71;98869.56;7366511;19;20018;-62
2024/02/25 10:58:40;;;;;;;0.10;0.10;;;;;;;9.88;71.60;98876.44;7362279;19;20887;-62
2024/02/25 11:01:06;;;;;;;0.10;0.10;;;;;;;9.91;71.67;98878.94;7365535;19;20479;-62
2024/02/25 11:03:32;;;;;;;0.10;0.10;;;;;;;9.93;71.87;98877.06;7369428;19;20011;-62
2024/02/25 11:06:01;;;;;;;0.10;0.10;;;;;;;9.99;71.52;98886.38;7364950;19;20037;-62
2024/02/25 11:08:41;;;;;;;0.10;0.10;;;;;;;10.00;71.47;98880.25;7363284;19;19994;-62
2024/02/25 11:11:10;;;;;;;0.10;0.10;;;;;;;10.08;71.93;98888.50;7370122;19;20014;-62
2024/02/25 11:13:42;;;;;;;0.10;0.10;;;;;;;10.18;71.80;98901.94;7364198;19;20070;-65
2024/02/25 11:16:07;;;;;;;0.10;0.10;;;;;;;10.20;71.30;98889.69;7366361;19;20542;-63
2024/02/25 11:18:33;;;;;;;0.00;0.00;;;;;;;10.28;71.69;98903.19;7362008;19;20058;-63
2024/02/25 11:21:07;;;;;;;0.10;0.10;;;;;;;10.41;71.15;98906.91;7367271;19;20015;-62
2024/02/25 11:23:44;;;;;;;0.10;0.10;;;;;;;10.52;70.97;98907.19;7366576;19;20511;-62
2024/02/25 11:26:34;;;;;;;0.00;0.00;;;;;;;10.65;70.90;98899.59;7365805;19;20025;-62
2024/02/25 11:29:18;;;;;;;0.10;0.10;;;;;;;10.74;70.67;98908.69;7365488;19;20014;-62
2024/02/25 11:31:47;;;;;;;0.10;0.10;;;;;;;10.77;70.47;98898.94;7361902;19;20011;-61
2024/02/25 11:34:13;;;;;;;0.10;0.10;;;;;;;10.80;70.23;98908.38;7366852;19;20018;-63
2024/02/25 11:36:41;;;;;;;0.10;0.10;;;;;;;10.87;70.08;98904.53;7365875;19;20042;-63
2024/02/25 11:39:07;;;;;;;0.00;0.00;;;;;;;10.87;69.93;98900.13;7366706;19;20734;-62